sensor_id;sensor_type;location;lat;lon;timestamp;temperature;humidity
7046;DHT22;3564;53.326;10.356;2022-07-04T00:00:16;23.00;84.30
7046;DHT22;3564;53.326;10.356;2022-07-04T00:02:43;23.00;84.40
7046;DHT22;3564;53.326;10.356;2022-07-04T00:05:10;23.00;84.20
7046;DHT22;3564;53.326;10.356;2022-07-04T00:07:40;23.00;84.20
7046;DHT22;3564;53.326;10.356;2022-07-04T00:10:08;23.00;84.20
7046;DHT22;3564;53.326;10.356;2022-07-04T00:12:34;23.10;84.10
7046;DHT22;3564;53.326;10.356;2022-07-04T00:15:01;23.00;84.00
7046;DHT22;3564;53.326;10.356;2022-07-04T00:17:27;23.00;84.00
7046;DHT22;3564;53.326;10.356;2022-07-04T00:19:53;22.80;84.00
7046;DHT22;3564;53.326;10.356;2022-07-04T00:22:19;22.60;84.40
7046;DHT22;3564;53.326;10.356;2022-07-04T00:24:45;22.50;84.80
7046;DHT22;3564;53.326;10.356;2022-07-04T00:27:10;22.20;85.00
7046;DHT22;3564;53.326;10.356;2022-07-04T00:29:36;22.10;85.30
7046;DHT22;3564;53.326;10.356;2022-07-04T00:32:01;22.00;85.40
7046;DHT22;3564;53.326;10.356;2022-07-04T00:34:27;21.90;85.70
7046;DHT22;3564;53.326;10.356;2022-07-04T00:36:53;21.90;85.90
7046;DHT22;3564;53.326;10.356;2022-07-04T00:39:19;21.80;86.00
7046;DHT22;3564;53.326;10.356;2022-07-04T00:41:44;21.70;86.00
7046;DHT22;3564;53.326;10.356;2022-07-04T00:44:11;21.60;86.10
7046;DHT22;3564;53.326;10.356;2022-07-04T00:46:38;21.60;86.20
7046;DHT22;3564;53.326;10.356;2022-07-04T00:49:09;21.50;86.40
7046;DHT22;3564;53.326;10.356;2022-07-04T00:51:41;21.50;86.60
7046;DHT22;3564;53.326;10.356;2022-07-04T00:54:11;21.50;86.50
7046;DHT22;3564;53.326;10.356;2022-07-04T00:56:38;21.40;86.70
7046;DHT22;3564;53.326;10.356;2022-07-04T00:59:05;21.30;86.80
7046;DHT22;3564;53.326;10.356;2022-07-04T01:01:30;21.30;86.90
7046;DHT22;3564;53.326;10.356;2022-07-04T01:03:57;21.20;87.10
7046;DHT22;3564;53.326;10.356;2022-07-04T01:06:22;21.10;87.10
7046;DHT22;3564;53.326;10.356;2022-07-04T01:08:48;21.10;87.30
7046;DHT22;3564;53.326;10.356;2022-07-04T01:11:15;21.00;87.50
7046;DHT22;3564;53.326;10.356;2022-07-04T01:13:42;21.10;87.60
7046;DHT22;3564;53.326;10.356;2022-07-04T01:16:09;21.00;87.70
7046;DHT22;3564;53.326;10.356;2022-07-04T01:18:35;21.00;87.70
7046;DHT22;3564;53.326;10.356;2022-07-04T01:21:01;20.90;88.00
7046;DHT22;3564;53.326;10.356;2022-07-04T01:23:26;20.90;88.30
7046;DHT22;3564;53.326;10.356;2022-07-04T01:25:52;20.80;88.50
7046;DHT22;3564;53.326;10.356;2022-07-04T01:28:20;20.80;88.90
7046;DHT22;3564;53.326;10.356;2022-07-04T01:30:46;20.70;89.10
7046;DHT22;3564;53.326;10.356;2022-07-04T01:33:12;20.70;89.40
7046;DHT22;3564;53.326;10.356;2022-07-04T01:35:38;20.70;89.60
7046;DHT22;3564;53.326;10.356;2022-07-04T01:38:05;20.70;89.60
7046;DHT22;3564;53.326;10.356;2022-07-04T01:40:31;20.70;89.90
7046;DHT22;3564;53.326;10.356;2022-07-04T01:42:57;20.60;90.00
7046;DHT22;3564;53.326;10.356;2022-07-04T01:45:24;20.60;90.30
7046;DHT22;3564;53.326;10.356;2022-07-04T01:47:50;20.60;90.10
7046;DHT22;3564;53.326;10.356;2022-07-04T01:50:16;20.50;90.10
7046;DHT22;3564;53.326;10.356;2022-07-04T01:52:42;20.50;90.20
7046;DHT22;3564;53.326;10.356;2022-07-04T01:55:09;20.40;90.20
7046;DHT22;3564;53.326;10.356;2022-07-04T01:57:35;20.40;90.40
7046;DHT22;3564;53.326;10.356;2022-07-04T02:00:01;20.40;90.30
7046;DHT22;3564;53.326;10.356;2022-07-04T02:02:45;20.40;90.40
7046;DHT22;3564;53.326;10.356;2022-07-04T02:05:10;20.50;90.50
7046;DHT22;3564;53.326;10.356;2022-07-04T02:07:36;20.50;90.50
7046;DHT22;3564;53.326;10.356;2022-07-04T02:10:02;20.50;90.40
7046;DHT22;3564;53.326;10.356;2022-07-04T02:12:28;20.50;90.40
7046;DHT22;3564;53.326;10.356;2022-07-04T02:15:12;20.50;90.30
7046;DHT22;3564;53.326;10.356;2022-07-04T02:17:38;20.50;90.40
7046;DHT22;3564;53.326;10.356;2022-07-04T02:20:05;20.40;90.40
7046;DHT22;3564;53.326;10.356;2022-07-04T02:22:32;20.40;90.40
7046;DHT22;3564;53.326;10.356;2022-07-04T02:24:57;20.40;90.40
7046;DHT22;3564;53.326;10.356;2022-07-04T02:27:23;20.40;90.50
7046;DHT22;3564;53.326;10.356;2022-07-04T02:29:49;20.40;90.50
7046;DHT22;3564;53.326;10.356;2022-07-04T02:32:14;20.40;90.60
7046;DHT22;3564;53.326;10.356;2022-07-04T02:34:44;20.40;90.60
7046;DHT22;3564;53.326;10.356;2022-07-04T02:37:10;20.30;90.70
7046;DHT22;3564;53.326;10.356;2022-07-04T02:39:35;20.20;90.70
7046;DHT22;3564;53.326;10.356;2022-07-04T02:42:01;20.20;90.80
7046;DHT22;3564;53.326;10.356;2022-07-04T02:44:27;20.10;90.90
7046;DHT22;3564;53.326;10.356;2022-07-04T02:46:52;20.20;91.00
7046;DHT22;3564;53.326;10.356;2022-07-04T02:49:19;20.10;91.00
7046;DHT22;3564;53.326;10.356;2022-07-04T02:51:44;20.10;91.10
7046;DHT22;3564;53.326;10.356;2022-07-04T02:54:11;20.10;91.20
7046;DHT22;3564;53.326;10.356;2022-07-04T02:56:36;20.10;91.30
7046;DHT22;3564;53.326;10.356;2022-07-04T02:59:02;20.00;91.40
7046;DHT22;3564;53.326;10.356;2022-07-04T03:01:28;20.10;91.60
7046;DHT22;3564;53.326;10.356;2022-07-04T03:03:56;20.00;91.70
7046;DHT22;3564;53.326;10.356;2022-07-04T03:06:22;20.00;91.70
7046;DHT22;3564;53.326;10.356;2022-07-04T03:08:48;19.90;91.70
7046;DHT22;3564;53.326;10.356;2022-07-04T03:11:13;19.90;91.90
7046;DHT22;3564;53.326;10.356;2022-07-04T03:13:40;19.90;92.00
7046;DHT22;3564;53.326;10.356;2022-07-04T03:16:06;19.90;92.10
7046;DHT22;3564;53.326;10.356;2022-07-04T03:18:32;19.90;92.10
7046;DHT22;3564;53.326;10.356;2022-07-04T03:20:58;19.90;92.10
7046;DHT22;3564;53.326;10.356;2022-07-04T03:23:27;19.90;92.20
7046;DHT22;3564;53.326;10.356;2022-07-04T03:25:52;19.90;92.30
7046;DHT22;3564;53.326;10.356;2022-07-04T03:28:18;20.00;92.40
7046;DHT22;3564;53.326;10.356;2022-07-04T03:30:43;19.90;92.40
7046;DHT22;3564;53.326;10.356;2022-07-04T03:33:09;20.00;92.50
7046;DHT22;3564;53.326;10.356;2022-07-04T03:35:35;20.00;92.60
7046;DHT22;3564;53.326;10.356;2022-07-04T03:38:00;20.00;92.50
7046;DHT22;3564;53.326;10.356;2022-07-04T03:40:27;20.00;92.60
7046;DHT22;3564;53.326;10.356;2022-07-04T03:42:57;19.90;92.60
7046;DHT22;3564;53.326;10.356;2022-07-04T03:45:24;19.90;92.50
7046;DHT22;3564;53.326;10.356;2022-07-04T03:47:50;19.90;92.50
7046;DHT22;3564;53.326;10.356;2022-07-04T03:50:16;20.00;92.50
7046;DHT22;3564;53.326;10.356;2022-07-04T03:52:42;19.90;92.50
7046;DHT22;3564;53.326;10.356;2022-07-04T03:55:09;19.90;92.50
7046;DHT22;3564;53.326;10.356;2022-07-04T03:57:35;19.90;92.50
7046;DHT22;3564;53.326;10.356;2022-07-04T04:00:01;19.90;92.50
7046;DHT22;3564;53.326;10.356;2022-07-04T04:02:27;19.90;92.60
7046;DHT22;3564;53.326;10.356;2022-07-04T04:04:53;19.90;92.90
7046;DHT22;3564;53.326;10.356;2022-07-04T04:07:36;19.90;92.60
7046;DHT22;3564;53.326;10.356;2022-07-04T04:10:02;19.90;92.60
7046;DHT22;3564;53.326;10.356;2022-07-04T04:12:28;19.90;92.60
7046;DHT22;3564;53.326;10.356;2022-07-04T04:14:54;20.00;92.70
7046;DHT22;3564;53.326;10.356;2022-07-04T04:17:19;19.90;92.70
7046;DHT22;3564;53.326;10.356;2022-07-04T04:19:45;19.90;92.70
7046;DHT22;3564;53.326;10.356;2022-07-04T04:22:10;19.90;92.80
7046;DHT22;3564;53.326;10.356;2022-07-04T04:24:36;20.00;92.80
7046;DHT22;3564;53.326;10.356;2022-07-04T04:27:02;20.00;92.90
7046;DHT22;3564;53.326;10.356;2022-07-04T04:29:28;20.00;92.90
7046;DHT22;3564;53.326;10.356;2022-07-04T04:31:55;20.00;92.90
7046;DHT22;3564;53.326;10.356;2022-07-04T04:34:20;20.00;93.00
7046;DHT22;3564;53.326;10.356;2022-07-04T04:36:46;20.00;93.00
7046;DHT22;3564;53.326;10.356;2022-07-04T04:39:11;20.00;93.10
7046;DHT22;3564;53.326;10.356;2022-07-04T04:41:38;20.00;93.10
7046;DHT22;3564;53.326;10.356;2022-07-04T04:44:04;20.00;93.10
7046;DHT22;3564;53.326;10.356;2022-07-04T04:46:31;20.00;93.20
7046;DHT22;3564;53.326;10.356;2022-07-04T04:48:56;20.00;93.20
7046;DHT22;3564;53.326;10.356;2022-07-04T04:51:22;20.10;93.20
7046;DHT22;3564;53.326;10.356;2022-07-04T04:53:47;20.30;93.00
7046;DHT22;3564;53.326;10.356;2022-07-04T04:56:13;20.40;92.80
7046;DHT22;3564;53.326;10.356;2022-07-04T04:58:38;20.60;92.70
7046;DHT22;3564;53.326;10.356;2022-07-04T05:01:05;20.70;92.60
7046;DHT22;3564;53.326;10.356;2022-07-04T05:03:31;20.80;92.40
7046;DHT22;3564;53.326;10.356;2022-07-04T05:05:56;20.80;92.30
7046;DHT22;3564;53.326;10.356;2022-07-04T05:08:22;20.80;92.40
7046;DHT22;3564;53.326;10.356;2022-07-04T05:10:50;20.60;92.30
7046;DHT22;3564;53.326;10.356;2022-07-04T05:13:16;20.50;92.50
7046;DHT22;3564;53.326;10.356;2022-07-04T05:15:41;20.60;92.50
7046;DHT22;3564;53.326;10.356;2022-07-04T05:18:07;20.70;92.30
7046;DHT22;3564;53.326;10.356;2022-07-04T05:20:32;20.80;92.00
7046;DHT22;3564;53.326;10.356;2022-07-04T05:22:59;20.90;91.90
7046;DHT22;3564;53.326;10.356;2022-07-04T05:25:25;21.00;92.00
7046;DHT22;3564;53.326;10.356;2022-07-04T05:27:51;21.00;91.90
7046;DHT22;3564;53.326;10.356;2022-07-04T05:30:17;21.10;91.80
7046;DHT22;3564;53.326;10.356;2022-07-04T05:32:42;21.20;91.60
7046;DHT22;3564;53.326;10.356;2022-07-04T05:35:08;21.30;91.30
7046;DHT22;3564;53.326;10.356;2022-07-04T05:37:34;21.30;91.50
7046;DHT22;3564;53.326;10.356;2022-07-04T05:40:02;21.40;91.00
7046;DHT22;3564;53.326;10.356;2022-07-04T05:42:28;21.40;90.80
7046;DHT22;3564;53.326;10.356;2022-07-04T05:44:53;21.40;90.70
7046;DHT22;3564;53.326;10.356;2022-07-04T05:47:19;21.40;90.70
7046;DHT22;3564;53.326;10.356;2022-07-04T05:49:49;21.50;90.60
7046;DHT22;3564;53.326;10.356;2022-07-04T05:52:15;21.40;90.40
7046;DHT22;3564;53.326;10.356;2022-07-04T05:54:41;21.30;90.50
7046;DHT22;3564;53.326;10.356;2022-07-04T05:57:06;21.10;90.60
7046;DHT22;3564;53.326;10.356;2022-07-04T05:59:32;21.00;90.70
7046;DHT22;3564;53.326;10.356;2022-07-04T06:01:57;20.90;90.90
7046;DHT22;3564;53.326;10.356;2022-07-04T06:04:23;20.80;90.90
7046;DHT22;3564;53.326;10.356;2022-07-04T06:06:49;20.80;91.00
7046;DHT22;3564;53.326;10.356;2022-07-04T06:09:14;20.90;90.90
7046;DHT22;3564;53.326;10.356;2022-07-04T06:11:40;21.10;90.70
7046;DHT22;3564;53.326;10.356;2022-07-04T06:14:05;21.30;90.30
7046;DHT22;3564;53.326;10.356;2022-07-04T06:16:31;21.40;90.10
7046;DHT22;3564;53.326;10.356;2022-07-04T06:18:56;21.60;90.00
7046;DHT22;3564;53.326;10.356;2022-07-04T06:21:22;21.60;89.50
7046;DHT22;3564;53.326;10.356;2022-07-04T06:23:47;21.60;89.10
7046;DHT22;3564;53.326;10.356;2022-07-04T06:26:13;21.40;88.90
7046;DHT22;3564;53.326;10.356;2022-07-04T06:28:39;21.30;88.90
7046;DHT22;3564;53.326;10.356;2022-07-04T06:31:04;21.30;89.20
7046;DHT22;3564;53.326;10.356;2022-07-04T06:33:30;21.50;89.20
7046;DHT22;3564;53.326;10.356;2022-07-04T06:35:55;21.60;88.40
7046;DHT22;3564;53.326;10.356;2022-07-04T06:38:28;21.80;88.00
7046;DHT22;3564;53.326;10.356;2022-07-04T06:40:57;21.90;87.20
7046;DHT22;3564;53.326;10.356;2022-07-04T06:43:24;21.90;87.00
7046;DHT22;3564;53.326;10.356;2022-07-04T06:45:50;22.00;86.50
7046;DHT22;3564;53.326;10.356;2022-07-04T06:48:16;22.10;86.80
7046;DHT22;3564;53.326;10.356;2022-07-04T06:50:42;22.20;86.80
7046;DHT22;3564;53.326;10.356;2022-07-04T06:53:09;22.30;86.10
7046;DHT22;3564;53.326;10.356;2022-07-04T06:55:37;22.30;85.20
7046;DHT22;3564;53.326;10.356;2022-07-04T06:58:04;22.40;85.50
7046;DHT22;3564;53.326;10.356;2022-07-04T07:00:30;22.40;85.70
7046;DHT22;3564;53.326;10.356;2022-07-04T07:02:56;22.50;85.80
7046;DHT22;3564;53.326;10.356;2022-07-04T07:05:24;22.50;84.80
7046;DHT22;3564;53.326;10.356;2022-07-04T07:07:49;22.50;84.80
7046;DHT22;3564;53.326;10.356;2022-07-04T07:10:15;22.50;85.10
7046;DHT22;3564;53.326;10.356;2022-07-04T07:12:41;22.60;84.40
7046;DHT22;3564;53.326;10.356;2022-07-04T07:15:06;22.60;83.70
7046;DHT22;3564;53.326;10.356;2022-07-04T07:17:32;22.60;84.10
7046;DHT22;3564;53.326;10.356;2022-07-04T07:19:58;22.70;82.40
7046;DHT22;3564;53.326;10.356;2022-07-04T07:22:23;22.80;82.90
7046;DHT22;3564;53.326;10.356;2022-07-04T07:24:49;22.80;82.90
7046;DHT22;3564;53.326;10.356;2022-07-04T07:27:15;22.80;82.40
7046;DHT22;3564;53.326;10.356;2022-07-04T07:29:40;22.80;82.40
7046;DHT22;3564;53.326;10.356;2022-07-04T07:32:06;22.90;82.60
7046;DHT22;3564;53.326;10.356;2022-07-04T07:34:32;23.00;82.60
7046;DHT22;3564;53.326;10.356;2022-07-04T07:36:58;23.00;82.10
7046;DHT22;3564;53.326;10.356;2022-07-04T07:39:23;23.10;81.90
7046;DHT22;3564;53.326;10.356;2022-07-04T07:41:49;23.10;82.00
7046;DHT22;3564;53.326;10.356;2022-07-04T07:44:15;23.10;82.00
7046;DHT22;3564;53.326;10.356;2022-07-04T07:46:40;23.10;82.00
7046;DHT22;3564;53.326;10.356;2022-07-04T07:49:06;23.10;80.00
7046;DHT22;3564;53.326;10.356;2022-07-04T07:51:32;23.00;80.30
7046;DHT22;3564;53.326;10.356;2022-07-04T07:53:58;23.00;80.70
7046;DHT22;3564;53.326;10.356;2022-07-04T07:56:25;23.10;81.30
7046;DHT22;3564;53.326;10.356;2022-07-04T07:58:51;23.10;80.00
7046;DHT22;3564;53.326;10.356;2022-07-04T08:01:17;23.10;80.30
7046;DHT22;3564;53.326;10.356;2022-07-04T08:03:43;23.20;79.80
7046;DHT22;3564;53.326;10.356;2022-07-04T08:06:28;23.20;78.80
7046;DHT22;3564;53.326;10.356;2022-07-04T08:08:53;23.30;79.30
7046;DHT22;3564;53.326;10.356;2022-07-04T08:11:19;23.30;79.30
7046;DHT22;3564;53.326;10.356;2022-07-04T08:13:46;23.30;79.50
7046;DHT22;3564;53.326;10.356;2022-07-04T08:16:11;23.30;79.50
7046;DHT22;3564;53.326;10.356;2022-07-04T08:18:37;23.40;78.90
7046;DHT22;3564;53.326;10.356;2022-07-04T08:21:03;23.50;78.50
7046;DHT22;3564;53.326;10.356;2022-07-04T08:23:30;23.60;78.20
7046;DHT22;3564;53.326;10.356;2022-07-04T08:25:59;23.60;78.50
7046;DHT22;3564;53.326;10.356;2022-07-04T08:28:26;23.70;78.10
7046;DHT22;3564;53.326;10.356;2022-07-04T08:30:51;23.70;77.50
7046;DHT22;3564;53.326;10.356;2022-07-04T08:33:17;23.70;77.40
7046;DHT22;3564;53.326;10.356;2022-07-04T08:35:43;23.80;77.50
7046;DHT22;3564;53.326;10.356;2022-07-04T08:38:09;23.90;78.00
7046;DHT22;3564;53.326;10.356;2022-07-04T08:40:34;23.90;77.50
7046;DHT22;3564;53.326;10.356;2022-07-04T08:43:02;24.00;77.90
7046;DHT22;3564;53.326;10.356;2022-07-04T08:45:30;24.00;76.90
7046;DHT22;3564;53.326;10.356;2022-07-04T08:48:08;24.10;76.70
7046;DHT22;3564;53.326;10.356;2022-07-04T08:50:38;24.10;77.20
7046;DHT22;3564;53.326;10.356;2022-07-04T08:53:13;24.20;76.20
7046;DHT22;3564;53.326;10.356;2022-07-04T08:55:40;24.30;75.70
7046;DHT22;3564;53.326;10.356;2022-07-04T08:58:26;24.40;76.00
7046;DHT22;3564;53.326;10.356;2022-07-04T09:01:07;24.40;75.80
7046;DHT22;3564;53.326;10.356;2022-07-04T09:03:34;24.40;75.70
7046;DHT22;3564;53.326;10.356;2022-07-04T09:06:00;24.50;75.50
7046;DHT22;3564;53.326;10.356;2022-07-04T09:08:27;24.40;74.40
7046;DHT22;3564;53.326;10.356;2022-07-04T09:10:54;24.40;75.10
7046;DHT22;3564;53.326;10.356;2022-07-04T09:13:20;24.40;75.70
7046;DHT22;3564;53.326;10.356;2022-07-04T09:15:51;24.40;76.30
7046;DHT22;3564;53.326;10.356;2022-07-04T09:18:34;24.40;76.60
7046;DHT22;3564;53.326;10.356;2022-07-04T09:21:02;24.40;76.40
7046;DHT22;3564;53.326;10.356;2022-07-04T09:23:48;24.50;74.70
7046;DHT22;3564;53.326;10.356;2022-07-04T09:26:16;24.50;74.70
7046;DHT22;3564;53.326;10.356;2022-07-04T09:28:53;24.60;75.80
7046;DHT22;3564;53.326;10.356;2022-07-04T09:31:21;24.60;74.00
7046;DHT22;3564;53.326;10.356;2022-07-04T09:33:57;24.60;73.10
7046;DHT22;3564;53.326;10.356;2022-07-04T09:36:28;24.50;72.70
7046;DHT22;3564;53.326;10.356;2022-07-04T09:42:00;24.50;73.20
7046;DHT22;3564;53.326;10.356;2022-07-04T09:44:29;24.60;74.30
7046;DHT22;3564;53.326;10.356;2022-07-04T09:47:20;24.60;74.40
7046;DHT22;3564;53.326;10.356;2022-07-04T09:50:19;24.70;74.30
7046;DHT22;3564;53.326;10.356;2022-07-04T09:52:50;24.70;72.50
7046;DHT22;3564;53.326;10.356;2022-07-04T09:57:48;24.80;72.00
7046;DHT22;3564;53.326;10.356;2022-07-04T10:02:53;25.00;72.50
7046;DHT22;3564;53.326;10.356;2022-07-04T10:05:28;25.10;71.80
7046;DHT22;3564;53.326;10.356;2022-07-04T10:07:56;25.20;71.50
7046;DHT22;3564;53.326;10.356;2022-07-04T10:12:56;25.40;71.70
7046;DHT22;3564;53.326;10.356;2022-07-04T10:15:23;25.50;71.90
7046;DHT22;3564;53.326;10.356;2022-07-04T10:17:49;25.50;71.50
7046;DHT22;3564;53.326;10.356;2022-07-04T10:20:15;25.60;71.30
7046;DHT22;3564;53.326;10.356;2022-07-04T10:22:41;25.50;71.50
7046;DHT22;3564;53.326;10.356;2022-07-04T10:25:09;25.50;71.60
7046;DHT22;3564;53.326;10.356;2022-07-04T10:27:36;25.50;71.90
7046;DHT22;3564;53.326;10.356;2022-07-04T10:30:06;25.50;71.50
7046;DHT22;3564;53.326;10.356;2022-07-04T10:32:34;25.60;70.60
7046;DHT22;3564;53.326;10.356;2022-07-04T10:35:00;25.60;70.10
7046;DHT22;3564;53.326;10.356;2022-07-04T10:37:59;25.70;69.80
7046;DHT22;3564;53.326;10.356;2022-07-04T10:40:48;25.80;70.50
7046;DHT22;3564;53.326;10.356;2022-07-04T10:49:36;26.00;69.60
7046;DHT22;3564;53.326;10.356;2022-07-04T10:54:19;26.10;71.00
7046;DHT22;3564;53.326;10.356;2022-07-04T10:59:12;26.10;70.10
7046;DHT22;3564;53.326;10.356;2022-07-04T11:01:39;26.10;69.50
7046;DHT22;3564;53.326;10.356;2022-07-04T11:04:09;26.00;69.90
7046;DHT22;3564;53.326;10.356;2022-07-04T11:11:55;26.00;70.40
7046;DHT22;3564;53.326;10.356;2022-07-04T11:14:47;26.00;70.60
7046;DHT22;3564;53.326;10.356;2022-07-04T11:17:14;26.00;70.10
7046;DHT22;3564;53.326;10.356;2022-07-04T11:19:41;26.00;70.50
7046;DHT22;3564;53.326;10.356;2022-07-04T11:22:09;26.00;70.40
7046;DHT22;3564;53.326;10.356;2022-07-04T11:24:37;25.90;70.20
7046;DHT22;3564;53.326;10.356;2022-07-04T11:27:06;25.90;71.00
7046;DHT22;3564;53.326;10.356;2022-07-04T11:29:32;25.90;71.00
7046;DHT22;3564;53.326;10.356;2022-07-04T11:31:58;25.90;71.00
7046;DHT22;3564;53.326;10.356;2022-07-04T11:34:24;25.90;70.60
7046;DHT22;3564;53.326;10.356;2022-07-04T11:36:51;25.90;70.30
7046;DHT22;3564;53.326;10.356;2022-07-04T11:39:19;25.90;70.00
7046;DHT22;3564;53.326;10.356;2022-07-04T11:41:52;25.90;70.70
7046;DHT22;3564;53.326;10.356;2022-07-04T11:44:38;26.00;71.10
7046;DHT22;3564;53.326;10.356;2022-07-04T11:47:41;26.10;70.70
7046;DHT22;3564;53.326;10.356;2022-07-04T11:50:12;26.20;69.70
7046;DHT22;3564;53.326;10.356;2022-07-04T11:52:45;26.30;69.60
7046;DHT22;3564;53.326;10.356;2022-07-04T11:55:13;26.40;69.10
7046;DHT22;3564;53.326;10.356;2022-07-04T11:57:59;26.40;68.80
7046;DHT22;3564;53.326;10.356;2022-07-04T12:00:26;26.30;68.60
7046;DHT22;3564;53.326;10.356;2022-07-04T12:02:59;26.30;69.40
7046;DHT22;3564;53.326;10.356;2022-07-04T12:05:24;26.30;69.80
7046;DHT22;3564;53.326;10.356;2022-07-04T12:07:50;26.30;70.30
7046;DHT22;3564;53.326;10.356;2022-07-04T12:10:23;26.40;69.60
7046;DHT22;3564;53.326;10.356;2022-07-04T12:12:58;26.50;68.90
7046;DHT22;3564;53.326;10.356;2022-07-04T12:15:26;26.50;68.00
7046;DHT22;3564;53.326;10.356;2022-07-04T12:18:00;26.50;68.10
7046;DHT22;3564;53.326;10.356;2022-07-04T12:20:26;26.50;68.40
7046;DHT22;3564;53.326;10.356;2022-07-04T12:23:04;26.50;68.30
7046;DHT22;3564;53.326;10.356;2022-07-04T12:25:34;26.60;68.60
7046;DHT22;3564;53.326;10.356;2022-07-04T12:28:10;26.60;69.30
7046;DHT22;3564;53.326;10.356;2022-07-04T12:30:50;26.60;68.70
7046;DHT22;3564;53.326;10.356;2022-07-04T12:33:22;26.60;68.90
7046;DHT22;3564;53.326;10.356;2022-07-04T12:38:28;26.70;67.40
7046;DHT22;3564;53.326;10.356;2022-07-04T12:40:59;26.80;67.60
7046;DHT22;3564;53.326;10.356;2022-07-04T12:46:06;26.90;68.20
7046;DHT22;3564;53.326;10.356;2022-07-04T12:48:32;27.10;67.70
7046;DHT22;3564;53.326;10.356;2022-07-04T12:51:27;27.10;67.60
7046;DHT22;3564;53.326;10.356;2022-07-04T12:53:57;27.20;68.50
7046;DHT22;3564;53.326;10.356;2022-07-04T12:56:33;27.30;67.10
7046;DHT22;3564;53.326;10.356;2022-07-04T12:59:03;27.40;65.90
7046;DHT22;3564;53.326;10.356;2022-07-04T13:01:29;27.40;67.20
7046;DHT22;3564;53.326;10.356;2022-07-04T13:03:56;27.50;66.70
7046;DHT22;3564;53.326;10.356;2022-07-04T13:06:22;27.50;66.00
7046;DHT22;3564;53.326;10.356;2022-07-04T13:08:49;27.50;65.90
7046;DHT22;3564;53.326;10.356;2022-07-04T13:11:14;27.50;64.60
7046;DHT22;3564;53.326;10.356;2022-07-04T13:13:58;27.50;65.20
7046;DHT22;3564;53.326;10.356;2022-07-04T13:16:24;27.40;65.00
7046;DHT22;3564;53.326;10.356;2022-07-04T13:18:50;27.40;65.20
7046;DHT22;3564;53.326;10.356;2022-07-04T13:21:15;27.30;66.40
7046;DHT22;3564;53.326;10.356;2022-07-04T13:23:41;27.30;65.50
7046;DHT22;3564;53.326;10.356;2022-07-04T13:26:06;27.30;65.90
7046;DHT22;3564;53.326;10.356;2022-07-04T13:28:32;27.30;64.80
7046;DHT22;3564;53.326;10.356;2022-07-04T13:30:58;27.30;64.70
7046;DHT22;3564;53.326;10.356;2022-07-04T13:33:24;27.30;65.00
7046;DHT22;3564;53.326;10.356;2022-07-04T13:35:50;27.40;65.80
7046;DHT22;3564;53.326;10.356;2022-07-04T13:38:17;27.30;65.00
7046;DHT22;3564;53.326;10.356;2022-07-04T13:40:45;27.40;65.40
7046;DHT22;3564;53.326;10.356;2022-07-04T13:43:11;27.40;66.20
7046;DHT22;3564;53.326;10.356;2022-07-04T13:45:40;27.50;65.90
7046;DHT22;3564;53.326;10.356;2022-07-04T13:48:08;27.50;65.80
7046;DHT22;3564;53.326;10.356;2022-07-04T13:50:34;27.50;63.80
7046;DHT22;3564;53.326;10.356;2022-07-04T13:53:06;27.60;65.60
7046;DHT22;3564;53.326;10.356;2022-07-04T13:55:35;27.70;65.20
7046;DHT22;3564;53.326;10.356;2022-07-04T13:58:05;27.80;64.80
7046;DHT22;3564;53.326;10.356;2022-07-04T14:00:32;27.80;64.30
7046;DHT22;3564;53.326;10.356;2022-07-04T14:02:58;27.80;63.70
7046;DHT22;3564;53.326;10.356;2022-07-04T14:05:24;27.70;64.30
7046;DHT22;3564;53.326;10.356;2022-07-04T14:07:54;27.70;64.00
7046;DHT22;3564;53.326;10.356;2022-07-04T14:10:20;27.70;64.70
7046;DHT22;3564;53.326;10.356;2022-07-04T14:12:46;27.70;64.80
7046;DHT22;3564;53.326;10.356;2022-07-04T14:15:12;27.60;65.50
7046;DHT22;3564;53.326;10.356;2022-07-04T14:17:39;27.60;65.90
7046;DHT22;3564;53.326;10.356;2022-07-04T14:20:07;27.50;66.20
7046;DHT22;3564;53.326;10.356;2022-07-04T14:22:37;27.60;65.90
7046;DHT22;3564;53.326;10.356;2022-07-04T14:25:04;27.50;64.50
7046;DHT22;3564;53.326;10.356;2022-07-04T14:27:30;27.50;64.60
7046;DHT22;3564;53.326;10.356;2022-07-04T14:29:55;27.50;65.60
7046;DHT22;3564;53.326;10.356;2022-07-04T14:32:21;27.50;66.00
7046;DHT22;3564;53.326;10.356;2022-07-04T14:34:47;27.50;66.20
7046;DHT22;3564;53.326;10.356;2022-07-04T14:37:12;27.40;65.70
7046;DHT22;3564;53.326;10.356;2022-07-04T14:39:38;27.40;65.70
7046;DHT22;3564;53.326;10.356;2022-07-04T14:42:04;27.50;66.20
7046;DHT22;3564;53.326;10.356;2022-07-04T14:44:29;27.60;67.00
7046;DHT22;3564;53.326;10.356;2022-07-04T14:46:55;27.80;66.20
7046;DHT22;3564;53.326;10.356;2022-07-04T14:49:21;28.10;66.00
7046;DHT22;3564;53.326;10.356;2022-07-04T14:51:46;28.30;65.00
7046;DHT22;3564;53.326;10.356;2022-07-04T14:54:12;28.40;63.80
7046;DHT22;3564;53.326;10.356;2022-07-04T14:56:38;28.40;64.50
7046;DHT22;3564;53.326;10.356;2022-07-04T14:59:04;28.40;66.70
7046;DHT22;3564;53.326;10.356;2022-07-04T15:01:30;28.60;65.30
7046;DHT22;3564;53.326;10.356;2022-07-04T15:03:56;28.70;64.70
7046;DHT22;3564;53.326;10.356;2022-07-04T15:06:22;28.90;64.00
7046;DHT22;3564;53.326;10.356;2022-07-04T15:08:47;29.00;63.70
7046;DHT22;3564;53.326;10.356;2022-07-04T15:11:13;28.90;63.90
7046;DHT22;3564;53.326;10.356;2022-07-04T15:13:39;28.80;64.40
7046;DHT22;3564;53.326;10.356;2022-07-04T15:16:04;28.70;64.20
7046;DHT22;3564;53.326;10.356;2022-07-04T15:18:30;28.70;63.90
7046;DHT22;3564;53.326;10.356;2022-07-04T15:20:56;28.60;64.20
7046;DHT22;3564;53.326;10.356;2022-07-04T15:23:40;28.70;63.00
7046;DHT22;3564;53.326;10.356;2022-07-04T15:26:25;28.70;63.10
7046;DHT22;3564;53.326;10.356;2022-07-04T15:28:50;28.70;63.40
7046;DHT22;3564;53.326;10.356;2022-07-04T15:31:16;28.60;64.00
7046;DHT22;3564;53.326;10.356;2022-07-04T15:33:41;28.50;63.70
7046;DHT22;3564;53.326;10.356;2022-07-04T15:36:07;28.40;62.90
7046;DHT22;3564;53.326;10.356;2022-07-04T15:38:33;28.20;63.40
7046;DHT22;3564;53.326;10.356;2022-07-04T15:40:58;28.00;63.20
7046;DHT22;3564;53.326;10.356;2022-07-04T15:43:28;27.90;63.50
7046;DHT22;3564;53.326;10.356;2022-07-04T15:45:55;27.70;64.00
7046;DHT22;3564;53.326;10.356;2022-07-04T15:48:24;27.70;63.80
7046;DHT22;3564;53.326;10.356;2022-07-04T15:50:49;27.50;64.40
7046;DHT22;3564;53.326;10.356;2022-07-04T15:53:15;27.40;64.80
7046;DHT22;3564;53.326;10.356;2022-07-04T15:55:40;27.40;65.40
7046;DHT22;3564;53.326;10.356;2022-07-04T15:58:06;27.30;65.60
7046;DHT22;3564;53.326;10.356;2022-07-04T16:00:33;27.30;65.90
7046;DHT22;3564;53.326;10.356;2022-07-04T16:02:58;27.30;66.10
7046;DHT22;3564;53.326;10.356;2022-07-04T16:05:24;27.40;66.70
7046;DHT22;3564;53.326;10.356;2022-07-04T16:07:50;27.40;67.30
7046;DHT22;3564;53.326;10.356;2022-07-04T16:10:16;27.50;68.40
7046;DHT22;3564;53.326;10.356;2022-07-04T16:12:41;27.70;68.00
7046;DHT22;3564;53.326;10.356;2022-07-04T16:15:07;27.90;67.40
7046;DHT22;3564;53.326;10.356;2022-07-04T16:17:34;28.20;67.30
7046;DHT22;3564;53.326;10.356;2022-07-04T16:19:59;28.40;67.30